Time;durP1;ratioP1;P1;durP2;ratioP2;P2;SDS_P1;SDS_P2;PMS_P1;PMS_P2;Temp;Humidity;BMP_temperature;BMP_pressure;BME280_temperature;BME280_humidity;BME280_pressure;Samples;Min_cycle;Max_cycle;Signal;HPM_P1;HPM_P2
2021/08/01 00:00:28;;;;;;;2.88;1.50;;;23.30;99.90;;;;;;5034223;28;20355;-70
2021/08/01 00:02:56;;;;;;;2.95;1.50;;;23.40;99.90;;;;;;5034380;28;20078;-71
2021/08/01 00:05:21;;;;;;;3.45;1.33;;;23.30;99.90;;;;;;5034079;28;20109;-70
2021/08/01 00:07:47;;;;;;;2.58;1.60;;;23.40;99.90;;;;;;5034077;28;20108;-69
2021/08/01 00:10:13;;;;;;;2.50;1.50;;;23.30;99.90;;;;;;5033469;28;20033;-70
2021/08/01 00:12:40;;;;;;;2.35;1.48;;;23.30;99.90;;;;;;5033940;28;20034;-70
2021/08/01 00:15:07;;;;;;;3.75;1.50;;;23.30;99.90;;;;;;5033538;28;20536;-71
2021/08/01 00:17:32;;;;;;;2.55;1.27;;;23.30;99.90;;;;;;5015992;28;20504;-70
2021/08/01 00:19:58;;;;;;;3.53;1.42;;;23.30;99.90;;;;;;5034347;28;20021;-72
2021/08/01 00:22:24;;;;;;;3.05;1.42;;;23.30;99.90;;;;;;5033776;28;20029;-70
2021/08/01 00:24:50;;;;;;;2.45;1.27;;;23.30;99.90;;;;;;5032946;28;20025;-71
2021/08/01 00:27:16;;;;;;;3.40;1.48;;;23.30;99.90;;;;;;5033696;28;20113;-71
2021/08/01 00:29:42;;;;;;;2.78;1.33;;;23.30;99.90;;;;;;5033361;28;20469;-71
2021/08/01 00:32:08;;;;;;;2.45;1.40;;;23.30;99.90;;;;;;5030290;28;20032;-72
2021/08/01 00:34:34;;;;;;;2.17;1.50;;;23.30;99.90;;;;;;5013743;28;20382;-71
2021/08/01 00:37:00;;;;;;;1.98;1.20;;;23.30;99.90;;;;;;5013975;28;20045;-70
2021/08/01 00:39:25;;;;;;;5.03;1.48;;;23.30;99.90;;;;;;5014002;28;20034;-70
2021/08/01 00:41:51;;;;;;;3.05;1.42;;;23.30;99.90;;;;;;5030782;28;20109;-72
2021/08/01 00:44:17;;;;;;;2.75;1.30;;;23.30;99.90;;;;;;5032146;28;20025;-71
2021/08/01 00:46:44;;;;;;;2.22;1.35;;;23.40;99.90;;;;;;5032913;28;20100;-71
2021/08/01 00:49:11;;;;;;;2.95;1.55;;;23.30;99.90;;;;;;5033286;28;20029;-71
2021/08/01 00:51:37;;;;;;;3.30;1.50;;;23.30;99.90;;;;;;5032870;28;20064;-73
2021/08/01 00:54:04;;;;;;;3.30;1.45;;;23.30;99.90;;;;;;5033309;28;20071;-70
2021/08/01 00:56:33;;;;;;;2.88;1.40;;;23.20;99.90;;;;;;5032636;28;20030;-70
2021/08/01 00:58:59;;;;;;;2.15;1.40;;;23.20;99.90;;;;;;5033394;28;20025;-70
2021/08/01 01:01:33;;;;;;;2.30;1.48;;;23.30;99.90;;;;;;5033100;28;20029;-71
2021/08/01 01:04:15;;;;;;;1.95;1.17;;;23.30;99.90;;;;;;5015139;28;20048;-70
2021/08/01 01:06:59;;;;;;;3.35;1.27;;;23.30;99.90;;;;;;5013110;28;20018;-71
2021/08/01 01:09:36;;;;;;;2.90;1.48;;;23.30;99.90;;;;;;5017181;28;20124;-72
2021/08/01 01:12:16;;;;;;;1.75;1.50;;;23.30;99.90;;;;;;5032569;28;20033;-72
2021/08/01 01:14:48;;;;;;;2.00;1.20;;;23.30;99.90;;;;;;5032700;28;20032;-73
2021/08/01 01:17:18;;;;;;;3.28;1.50;;;23.30;99.90;;;;;;5032753;28;20018;-71
2021/08/01 01:19:55;;;;;;;2.72;1.40;;;23.30;99.90;;;;;;5032966;28;20021;-72
2021/08/01 01:22:36;;;;;;;2.80;1.50;;;23.30;99.90;;;;;;5032694;28;20029;-73
2021/08/01 01:25:11;;;;;;;1.83;1.40;;;23.30;99.90;;;;;;5032199;28;20029;-71
2021/08/01 01:27:46;;;;;;;2.30;1.10;;;23.30;99.90;;;;;;5032050;28;20363;-73
2021/08/01 01:30:12;;;;;;;1.67;1.27;;;23.30;99.90;;;;;;5032306;28;20501;-73
2021/08/01 01:32:47;;;;;;;4.45;1.45;;;23.30;99.90;;;;;;5025336;28;20067;-70
2021/08/01 01:35:15;;;;;;;2.45;1.30;;;23.20;99.90;;;;;;5013479;28;20037;-73
2021/08/01 01:37:43;;;;;;;2.75;1.42;;;23.20;99.90;;;;;;5031920;28;20426;-70
2021/08/01 01:40:11;;;;;;;3.35;1.40;;;23.20;99.90;;;;;;5031832;28;20070;-71
2021/08/01 01:42:38;;;;;;;2.03;1.23;;;23.20;99.90;;;;;;5032205;28;20040;-69
2021/08/01 01:45:04;;;;;;;2.75;1.42;;;23.20;99.90;;;;;;5032474;28;20028;-71
2021/08/01 01:47:32;;;;;;;2.65;1.50;;;23.20;99.90;;;;;;5031748;28;20040;-71
2021/08/01 01:49:59;;;;;;;3.17;1.60;;;23.20;99.90;;;;;;5032230;28;20160;-71
2021/08/01 01:52:27;;;;;;;3.47;1.25;;;23.10;99.90;;;;;;5032403;28;20084;-74
2021/08/01 01:54:53;;;;;;;2.63;1.40;;;23.10;99.90;;;;;;5031271;28;20029;-72
2021/08/01 01:57:19;;;;;;;2.13;1.42;;;23.10;99.90;;;;;;5032249;28;20089;-71
2021/08/01 01:59:45;;;;;;;1.60;1.42;;;23.10;99.90;;;;;;5031675;28;20046;-71
2021/08/01 02:02:11;;;;;;;1.98;1.17;;;23.20;99.90;;;;;;5031543;28;20025;-73
2021/08/01 02:04:37;;;;;;;4.30;1.60;;;23.10;99.90;;;;;;5031992;28;20095;-73
2021/08/01 02:07:07;;;;;;;2.33;1.38;;;23.10;99.90;;;;;;5031722;28;20029;-74
2021/08/01 02:10:04;;;;;;;1.60;1.25;;;23.10;99.90;;;;;;5031357;28;20033;-71
2021/08/01 02:12:52;;;;;;;2.08;1.10;;;23.10;99.90;;;;;;5027285;28;20060;-71
2021/08/01 02:15:22;;;;;;;3.15;1.10;;;23.10;99.90;;;;;;5031627;28;20108;-74
2021/08/01 02:18:09;;;;;;;3.88;1.35;;;23.10;99.90;;;;;;5031323;28;20462;-73
2021/08/01 02:20:39;;;;;;;1.77;1.27;;;23.10;99.90;;;;;;5031636;28;20021;-70
2021/08/01 02:23:09;;;;;;;3.95;1.55;;;23.10;99.90;;;;;;5013739;28;20440;-70
2021/08/01 02:25:36;;;;;;;3.38;1.40;;;23.00;99.90;;;;;;5031073;28;20358;-70
2021/08/01 02:28:07;;;;;;;3.15;1.52;;;23.10;99.90;;;;;;5031576;28;20031;-71
2021/08/01 02:30:33;;;;;;;2.45;1.35;;;23.10;99.90;;;;;;5031140;28;20048;-69
2021/08/01 02:32:59;;;;;;;2.45;1.20;;;23.10;99.90;;;;;;5020475;28;20018;-73
2021/08/01 02:35:25;;;;;;;4.88;1.52;;;23.00;99.90;;;;;;5014260;28;20080;-68
2021/08/01 02:37:55;;;;;;;6.40;1.25;;;23.00;99.90;;;;;;5031538;28;20028;-72
2021/08/01 02:40:21;;;;;;;7.82;1.67;;;23.00;99.90;;;;;;5030729;28;20025;-70
2021/08/01 02:42:50;;;;;;;3.25;1.60;;;23.00;99.90;;;;;;5031119;28;20030;-74
2021/08/01 02:45:16;;;;;;;3.28;1.33;;;22.90;99.90;;;;;;5031449;28;20031;-72
2021/08/01 02:47:43;;;;;;;7.13;1.45;;;23.00;99.90;;;;;;5031001;28;20026;-71
2021/08/01 02:50:10;;;;;;;3.40;1.60;;;23.00;99.90;;;;;;5031149;28;20086;-70
2021/08/01 02:52:54;;;;;;;3.20;1.40;;;22.90;99.90;;;;;;5030648;28;20029;-69
2021/08/01 02:55:20;;;;;;;6.68;1.30;;;22.90;99.90;;;;;;5030972;28;20091;-69
2021/08/01 02:57:48;;;;;;;2.63;1.33;;;22.90;99.90;;;;;;5030481;28;20105;-72
2021/08/01 03:00:15;;;;;;;4.82;1.40;;;22.90;99.90;;;;;;5031179;28;20087;-69
2021/08/01 03:02:41;;;;;;;5.10;1.60;;;22.90;99.90;;;;;;5023898;28;20086;-70
2021/08/01 03:05:09;;;;;;;2.30;1.40;;;22.90;99.90;;;;;;5011464;28;20022;-70
2021/08/01 03:07:38;;;;;;;3.35;1.50;;;22.90;99.90;;;;;;5013307;28;20079;-71
2021/08/01 03:10:04;;;;;;;4.57;1.52;;;22.90;99.90;;;;;;5034905;28;20037;-71
2021/08/01 03:12:30;;;;;;;3.55;1.45;;;22.90;99.90;;;;;;5035136;28;20029;-71
2021/08/01 03:14:55;;;;;;;3.50;1.65;;;23.00;99.90;;;;;;5035465;28;20028;-70
2021/08/01 03:17:21;;;;;;;2.88;1.35;;;22.90;99.90;;;;;;5034709;28;20051;-71
2021/08/01 03:19:47;;;;;;;4.93;1.40;;;22.90;99.90;;;;;;5034575;28;20036;-70
2021/08/01 03:22:12;;;;;;;2.53;1.55;;;22.90;99.90;;;;;;5034769;28;20435;-70
2021/08/01 03:24:38;;;;;;;5.00;1.60;;;22.90;99.90;;;;;;5033618;28;20108;-71
2021/08/01 03:27:04;;;;;;;2.63;1.30;;;22.90;99.90;;;;;;5034426;28;20052;-70
2021/08/01 03:29:30;;;;;;;3.95;1.63;;;22.90;99.90;;;;;;5034460;28;20036;-72
2021/08/01 03:31:55;;;;;;;2.88;1.70;;;22.80;99.90;;;;;;5034766;28;20030;-69
2021/08/01 03:34:21;;;;;;;4.95;1.50;;;22.90;99.90;;;;;;5015193;28;20053;-71
2021/08/01 03:36:48;;;;;;;4.68;1.50;;;22.80;99.90;;;;;;5024045;28;20105;-71
2021/08/01 03:39:13;;;;;;;2.75;1.50;;;22.90;99.90;;;;;;5034782;28;20029;-71
2021/08/01 03:41:40;;;;;;;5.30;1.33;;;22.80;99.90;;;;;;5034515;28;20029;-70
2021/08/01 03:44:05;;;;;;;2.90;1.40;;;22.80;99.90;;;;;;5034648;28;20036;-69
2021/08/01 03:46:31;;;;;;;2.83;1.67;;;22.80;99.90;;;;;;5034099;28;20022;-70
2021/08/01 03:48:56;;;;;;;2.22;1.30;;;22.80;99.90;;;;;;5034316;28;20037;-70
2021/08/01 03:51:22;;;;;;;3.78;1.67;;;22.80;99.90;;;;;;5034176;28;20453;-70
2021/08/01 03:53:48;;;;;;;2.55;1.35;;;22.80;99.90;;;;;;5034484;28;20025;-70
2021/08/01 03:56:13;;;;;;;3.67;1.55;;;22.80;99.90;;;;;;5034047;28;20044;-70
2021/08/01 03:58:39;;;;;;;2.72;1.40;;;22.80;99.90;;;;;;5034138;28;20109;-71
2021/08/01 04:01:05;;;;;;;2.10;1.40;;;22.80;99.90;;;;;;5033623;28;20034;-71
2021/08/01 04:03:30;;;;;;;3.20;1.33;;;22.80;99.90;;;;;;5021830;28;20106;-69
2021/08/01 04:05:56;;;;;;;2.13;1.13;;;22.80;99.90;;;;;;5021858;28;20021;-71
2021/08/01 04:08:21;;;;;;;7.10;1.67;;;22.80;99.90;;;;;;5033749;28;20453;-73
2021/08/01 04:10:47;;;;;;;7.57;1.65;;;22.70;99.90;;;;;;5033703;28;20037;-72
2021/08/01 04:13:12;;;;;;;3.90;1.35;;;22.70;99.90;;;;;;5015863;28;20030;-73
2021/08/01 04:15:44;;;;;;;2.47;1.25;;;22.70;99.90;;;;;;5016217;28;20026;-71
2021/08/01 04:18:09;;;;;;;6.07;1.60;;;22.70;99.90;;;;;;5033522;28;20029;-72
2021/08/01 04:20:37;;;;;;;6.45;1.70;;;22.70;99.90;;;;;;5033738;28;20039;-72
2021/08/01 04:23:02;;;;;;;5.63;1.48;;;22.70;99.90;;;;;;5033682;28;20037;-72
2021/08/01 04:25:28;;;;;;;4.22;1.40;;;22.70;99.90;;;;;;5033472;28;20561;-72
2021/08/01 04:27:54;;;;;;;5.20;1.48;;;22.70;99.90;;;;;;5014962;28;20025;-74
2021/08/01 04:30:20;;;;;;;2.58;1.35;;;22.70;99.90;;;;;;5033194;28;20117;-71
2021/08/01 04:32:45;;;;;;;6.57;1.52;;;22.70;99.90;;;;;;5033639;28;20025;-72
2021/08/01 04:35:11;;;;;;;4.43;1.60;;;22.70;99.90;;;;;;5033785;28;20034;-70
2021/08/01 04:37:37;;;;;;;3.67;1.48;;;22.70;99.90;;;;;;5032299;28;20026;-71
2021/08/01 04:40:03;;;;;;;4.50;1.38;;;22.70;99.90;;;;;;5033303;28;20398;-70
2021/08/01 04:42:28;;;;;;;2.75;1.42;;;22.70;99.90;;;;;;5032969;28;20584;-71
2021/08/01 04:44:54;;;;;;;3.58;1.30;;;22.70;99.90;;;;;;5033514;28;20029;-71
2021/08/01 04:47:20;;;;;;;2.22;1.30;;;22.70;99.90;;;;;;5032884;28;20079;-70
2021/08/01 04:49:45;;;;;;;5.40;1.17;;;22.70;99.90;;;;;;5033251;28;20045;-69
2021/08/01 04:52:19;;;;;;;2.78;1.33;;;22.70;99.90;;;;;;5033354;28;20032;-70
2021/08/01 04:54:44;;;;;;;2.38;1.30;;;22.70;99.90;;;;;;5033073;28;20473;-70
2021/08/01 04:57:10;;;;;;;3.88;1.40;;;22.70;99.90;;;;;;5031830;28;20079;-70
2021/08/01 04:59:36;;;;;;;2.15;1.42;;;22.70;99.90;;;;;;5033055;28;20026;-70
2021/08/01 05:02:03;;;;;;;4.60;1.80;;;22.70;99.90;;;;;;5032761;28;20502;-70
2021/08/01 05:04:28;;;;;;;5.95;1.48;;;22.70;99.90;;;;;;5017555;28;20101;-71
2021/08/01 05:06:54;;;;;;;3.08;1.73;;;22.80;99.90;;;;;;5021544;28;20097;-70
2021/08/01 05:09:20;;;;;;;2.53;1.23;;;22.70;99.90;;;;;;5032767;28;20485;-70
2021/08/01 05:11:45;;;;;;;3.67;1.48;;;22.70;99.90;;;;;;5032609;28;20025;-70
2021/08/01 05:14:11;;;;;;;3.40;1.58;;;22.70;99.90;;;;;;5033014;28;20017;-71
2021/08/01 05:16:37;;;;;;;3.03;1.48;;;22.70;99.90;;;;;;5032201;28;20206;-71
2021/08/01 05:19:02;;;;;;;5.22;1.65;;;22.70;99.90;;;;;;5033047;28;20029;-70
2021/08/01 05:21:28;;;;;;;2.67;1.20;;;22.70;99.90;;;;;;5032332;28;20033;-72
2021/08/01 05:23:54;;;;;;;5.97;1.48;;;22.70;99.90;;;;;;5032721;28;20032;-71
2021/08/01 05:26:19;;;;;;;6.65;1.70;;;22.70;99.90;;;;;;5032011;28;20026;-70
2021/08/01 05:28:45;;;;;;;3.80;1.48;;;22.70;99.90;;;;;;5032551;28;20029;-71
2021/08/01 05:31:10;;;;;;;3.75;1.50;;;22.80;99.90;;;;;;5031645;28;20033;-72
2021/08/01 05:33:36;;;;;;;3.50;1.45;;;22.70;99.90;;;;;;5032152;28;20080;-71
2021/08/01 05:36:09;;;;;;;3.38;1.60;;;22.70;99.90;;;;;;5032893;28;20040;-72
2021/08/01 05:38:36;;;;;;;3.40;1.30;;;22.70;99.90;;;;;;5032343;28;20501;-70
2021/08/01 05:41:02;;;;;;;3.17;1.10;;;22.70;99.90;;;;;;5032161;28;20037;-70
2021/08/01 05:43:27;;;;;;;2.80;1.35;;;22.70;99.90;;;;;;5031861;28;20034;-70
2021/08/01 05:45:53;;;;;;;3.42;1.02;;;22.80;99.90;;;;;;5032382;28;20037;-70
2021/08/01 05:48:19;;;;;;;1.98;1.27;;;22.80;99.90;;;;;;5031632;28;20037;-71
2021/08/01 05:50:45;;;;;;;3.53;1.30;;;22.90;99.90;;;;;;5032322;28;20029;-71
2021/08/01 05:53:10;;;;;;;2.50;1.60;;;22.90;99.90;;;;;;5031935;28;20112;-70
2021/08/01 05:55:36;;;;;;;3.38;1.45;;;22.90;99.90;;;;;;5031625;28;20033;-70
2021/08/01 05:58:01;;;;;;;4.20;1.55;;;22.90;99.90;;;;;;5032203;28;20029;-70
2021/08/01 06:00:27;;;;;;;2.05;1.08;;;22.90;99.90;;;;;;5031693;28;20030;-70
2021/08/01 06:02:53;;;;;;;2.85;1.35;;;23.00;99.90;;;;;;5031659;28;20033;-71
2021/08/01 06:05:19;;;;;;;3.88;1.70;;;23.00;99.90;;;;;;5031847;28;20029;-71
2021/08/01 06:07:45;;;;;;;4.00;1.63;;;23.10;99.90;;;;;;5031732;28;20029;-71
2021/08/01 06:10:11;;;;;;;2.50;1.20;;;23.10;99.90;;;;;;5031306;28;20052;-71
2021/08/01 06:12:37;;;;;;;2.67;1.50;;;23.10;99.90;;;;;;5030729;28;20045;-71
2021/08/01 06:15:03;;;;;;;2.63;1.35;;;23.20;99.90;;;;;;5032151;28;20473;-71
2021/08/01 06:17:29;;;;;;;2.60;1.27;;;23.20;99.90;;;;;;5030816;28;20018;-70
2021/08/01 06:19:55;;;;;;;2.53;1.33;;;23.10;99.90;;;;;;5031864;28;20560;-71
2021/08/01 06:22:22;;;;;;;4.10;1.20;;;23.10;99.90;;;;;;5031063;28;20037;-71
2021/08/01 06:24:48;;;;;;;2.75;1.27;;;23.20;99.90;;;;;;5031553;28;20100;-71
2021/08/01 06:27:14;;;;;;;2.60;1.10;;;23.20;99.90;;;;;;5031144;28;20728;-70
2021/08/01 06:29:39;;;;;;;2.42;1.10;;;23.20;99.90;;;;;;5031085;28;20041;-70
2021/08/01 06:32:05;;;;;;;5.57;1.40;;;23.20;99.90;;;;;;5031265;28;20064;-71
2021/08/01 06:34:31;;;;;;;3.25;1.35;;;23.10;99.90;;;;;;5016219;28;20026;-71
2021/08/01 06:36:56;;;;;;;3.22;1.30;;;23.10;99.90;;;;;;5018565;28;20026;-71
2021/08/01 06:39:22;;;;;;;5.13;1.30;;;23.20;99.90;;;;;;5031321;28;20028;-72
2021/08/01 06:41:48;;;;;;;3.35;1.38;;;23.20;99.90;;;;;;5030801;28;20060;-72
2021/08/01 06:44:13;;;;;;;3.30;1.30;;;23.20;99.90;;;;;;5031460;28;20030;-73
2021/08/01 06:46:39;;;;;;;3.80;1.20;;;23.20;99.90;;;;;;5030847;28;20025;-70
2021/08/01 06:49:04;;;;;;;1.77;0.95;;;23.20;99.90;;;;;;5028565;28;20033;-74
2021/08/01 06:51:30;;;;;;;5.18;1.52;;;23.30;99.90;;;;;;5030875;28;20042;-73
2021/08/01 06:53:56;;;;;;;6.90;1.42;;;23.20;99.90;;;;;;5031191;28;20025;-72
2021/08/01 06:56:21;;;;;;;6.63;1.73;;;22.90;99.90;;;;;;5030444;28;20029;-73
2021/08/01 06:58:47;;;;;;;5.57;1.70;;;22.90;99.90;;;;;;5031557;28;20025;-74
2021/08/01 07:01:12;;;;;;;7.00;1.77;;;22.90;99.90;;;;;;5031009;28;20504;-71
2021/08/01 07:03:39;;;;;;;6.32;1.73;;;22.80;99.90;;;;;;5022704;28;20034;-72
2021/08/01 07:06:04;;;;;;;6.25;1.60;;;22.80;99.90;;;;;;5014824;28;20109;-72
2021/08/01 07:08:30;;;;;;;6.88;1.80;;;22.80;99.90;;;;;;5035758;28;20153;-70
2021/08/01 07:10:56;;;;;;;8.25;2.33;;;22.80;99.90;;;;;;5030543;28;20371;-71
2021/08/01 07:13:22;;;;;;;6.47;1.83;;;22.80;99.90;;;;;;5030868;28;20104;-71
2021/08/01 07:15:51;;;;;;;6.57;1.95;;;22.80;99.90;;;;;;5003346;28;20022;-71
2021/08/01 07:18:17;;;;;;;6.05;2.00;;;22.70;99.90;;;;;;5028169;28;20091;-74
2021/08/01 07:20:43;;;;;;;6.55;2.08;;;22.70;99.90;;;;;;5013289;28;20440;-70
2021/08/01 07:23:09;;;;;;;8.93;2.05;;;22.80;99.90;;;;;;5024025;28;20519;-70
2021/08/01 07:25:36;;;;;;;7.78;2.15;;;22.90;99.90;;;;;;5018266;28;20030;-76
2021/08/01 07:28:04;;;;;;;7.63;2.25;;;22.90;99.90;;;;;;5018578;28;20099;-75
2021/08/01 07:30:30;;;;;;;9.68;1.90;;;22.90;99.90;;;;;;5016442;28;20042;-72
2021/08/01 07:32:56;;;;;;;7.85;1.92;;;23.00;99.90;;;;;;5029475;28;20017;-73
2021/08/01 07:35:22;;;;;;;9.10;2.22;;;23.00;99.90;;;;;;5030707;28;20500;-72
2021/08/01 07:37:48;;;;;;;7.30;1.98;;;23.10;99.90;;;;;;5031091;28;20051;-72
2021/08/01 07:40:13;;;;;;;7.78;1.80;;;23.10;99.90;;;;;;5030850;28;20480;-74
2021/08/01 07:42:39;;;;;;;7.00;1.98;;;23.10;99.90;;;;;;5030289;28;20021;-72
2021/08/01 07:45:10;;;;;;;9.35;2.15;;;23.20;99.90;;;;;;5030494;28;20072;-73
2021/08/01 07:47:36;;;;;;;8.02;2.10;;;23.30;99.90;;;;;;5012515;28;20032;-72
2021/08/01 07:50:04;;;;;;;12.85;2.17;;;23.20;99.90;;;;;;5030637;28;20041;-71
2021/08/01 07:52:30;;;;;;;7.95;2.20;;;23.20;99.90;;;;;;5030322;28;20033;-72
2021/08/01 07:54:57;;;;;;;8.57;2.15;;;23.20;99.90;;;;;;5033571;28;20084;-71
2021/08/01 07:57:29;;;;;;;6.82;2.05;;;23.20;99.90;;;;;;5034286;28;20033;-72
2021/08/01 07:59:56;;;;;;;7.22;1.80;;;23.30;99.90;;;;;;5034294;28;20021;-70
2021/08/01 08:02:22;;;;;;;13.18;2.78;;;23.30;99.90;;;;;;5033803;28;20388;-71
2021/08/01 08:04:49;;;;;;;8.43;1.70;;;23.30;99.90;;;;;;5034049;28;20113;-71
2021/08/01 08:07:14;;;;;;;7.45;2.03;;;23.30;99.90;;;;;;5033702;28;20354;-70
2021/08/01 08:09:40;;;;;;;8.02;2.13;;;23.30;99.90;;;;;;5033993;28;20037;-71
2021/08/01 08:12:06;;;;;;;8.48;2.22;;;23.20;99.90;;;;;;5034175;28;20097;-70
2021/08/01 08:14:32;;;;;;;7.90;2.15;;;23.10;99.90;;;;;;5027018;28;20038;-69
2021/08/01 08:16:59;;;;;;;8.20;2.35;;;22.90;99.90;;;;;;5022557;28;20018;-71
2021/08/01 08:19:25;;;;;;;8.10;2.60;;;22.90;99.90;;;;;;5023410;28;20469;-71
2021/08/01 08:21:50;;;;;;;8.05;2.33;;;22.90;99.90;;;;;;5021514;28;20036;-71
2021/08/01 08:24:16;;;;;;;5.53;2.00;;;22.80;99.90;;;;;;5031338;28;20072;-71
2021/08/01 08:26:42;;;;;;;5.43;2.20;;;22.80;99.90;;;;;;5033223;28;20030;-69
2021/08/01 08:29:07;;;;;;;7.25;2.40;;;22.90;99.90;;;;;;5033534;28;20116;-69
2021/08/01 08:31:33;;;;;;;6.75;2.03;;;22.80;99.90;;;;;;5020769;28;20494;-70
2021/08/01 08:33:59;;;;;;;6.40;2.05;;;22.90;99.90;;;;;;5019344;28;20026;-70
2021/08/01 08:36:24;;;;;;;4.40;1.90;;;22.80;99.90;;;;;;5032772;28;20083;-70
2021/08/01 08:38:50;;;;;;;6.13;2.00;;;22.90;99.90;;;;;;5027038;28;20484;-70
2021/08/01 08:41:16;;;;;;;5.78;1.92;;;22.90;99.90;;;;;;5013807;28;20026;-70
2021/08/01 08:43:46;;;;;;;4.15;1.67;;;22.90;99.90;;;;;;5021574;28;20026;-71
2021/08/01 08:46:12;;;;;;;4.63;1.90;;;22.90;99.90;;;;;;5033160;28;20036;-70
2021/08/01 08:48:39;;;;;;;7.72;2.10;;;22.80;99.90;;;;;;5033076;28;20029;-69
2021/08/01 08:51:09;;;;;;;4.78;2.05;;;22.80;99.90;;;;;;5031661;28;20113;-70
2021/08/01 08:53:55;;;;;;;6.00;2.03;;;22.80;99.90;;;;;;5032887;28;20561;-69
2021/08/01 08:56:23;;;;;;;6.35;1.77;;;22.80;99.90;;;;;;5023156;28;20128;-69
2021/08/01 08:58:52;;;;;;;4.10;1.63;;;22.80;99.90;;;;;;5033392;28;20048;-71
2021/08/01 09:01:18;;;;;;;2.65;1.60;;;22.80;99.90;;;;;;5032152;28;20084;-70
2021/08/01 09:03:47;;;;;;;6.25;1.73;;;22.80;99.90;;;;;;5032859;28;20029;-70
2021/08/01 09:06:12;;;;;;;5.72;2.00;;;22.80;99.90;;;;;;5032190;28;20126;-68
2021/08/01 09:08:39;;;;;;;8.57;1.88;;;22.80;99.90;;;;;;5033160;28;20580;-70
2021/08/01 09:11:05;;;;;;;9.15;1.92;;;22.70;99.90;;;;;;5031482;28;20551;-67
2021/08/01 09:13:53;;;;;;;6.43;1.70;;;22.70;99.90;;;;;;5032792;28;20029;-70
2021/08/01 09:16:21;;;;;;;7.38;1.83;;;22.60;99.90;;;;;;5033014;28;20400;-72
2021/08/01 09:18:47;;;;;;;4.90;1.60;;;22.70;99.90;;;;;;5032976;28;20025;-71
2021/08/01 09:21:30;;;;;;;5.45;1.70;;;22.60;99.90;;;;;;5032955;28;20061;-71
2021/08/01 09:23:56;;;;;;;5.93;1.60;;;22.60;99.90;;;;;;5032885;28;20053;-71
2021/08/01 09:26:22;;;;;;;4.93;1.40;;;22.60;99.90;;;;;;5001451;28;20139;-70
2021/08/01 09:29:02;;;;;;;4.63;1.80;;;22.60;99.90;;;;;;5026831;28;20093;-70
2021/08/01 09:31:28;;;;;;;4.88;1.80;;;22.60;99.90;;;;;;5029714;28;20465;-71
2021/08/01 09:33:54;;;;;;;3.63;1.52;;;22.60;99.90;;;;;;5014358;28;20508;-69
2021/08/01 09:36:25;;;;;;;3.25;1.48;;;22.60;99.90;;;;;;5029428;28;20022;-70
2021/08/01 09:38:58;;;;;;;4.03;1.63;;;22.60;99.90;;;;;;5030350;28;20032;-71
2021/08/01 09:41:36;;;;;;;2.22;1.23;;;22.60;99.90;;;;;;5012739;28;20484;-69
2021/08/01 09:44:04;;;;;;;4.80;1.60;;;22.60;99.90;;;;;;5013050;28;20385;-70
2021/08/01 09:46:36;;;;;;;4.28;1.52;;;22.60;99.90;;;;;;5032305;28;20025;-71
2021/08/01 09:49:15;;;;;;;3.85;1.77;;;22.60;99.90;;;;;;5032139;28;20096;-71
2021/08/01 09:51:46;;;;;;;4.28;1.65;;;22.70;99.90;;;;;;5032194;28;20037;-70
2021/08/01 09:54:13;;;;;;;6.82;1.60;;;22.70;99.90;;;;;;5032380;28;20025;-71
2021/08/01 09:56:39;;;;;;;5.88;1.83;;;22.70;99.90;;;;;;5032198;28;20022;-71
2021/08/01 09:59:19;;;;;;;3.60;1.80;;;22.60;99.90;;;;;;5032504;28;20029;-71
2021/08/01 10:01:55;;;;;;;4.15;1.45;;;22.70;99.90;;;;;;5031984;28;20026;-71
2021/08/01 10:04:37;;;;;;;4.45;1.40;;;22.70;99.90;;;;;;5031880;28;20044;-72
2021/08/01 10:07:08;;;;;;;3.38;1.63;;;22.70;99.90;;;;;;5032205;28;20021;-71
2021/08/01 10:09:36;;;;;;;2.78;1.33;;;22.70;99.90;;;;;;5031711;28;20025;-71
2021/08/01 10:12:03;;;;;;;4.30;1.70;;;22.70;99.90;;;;;;5031956;28;20044;-71
2021/08/01 10:14:29;;;;;;;3.28;1.60;;;22.70;99.90;;;;;;5031616;28;20088;-71
2021/08/01 10:16:56;;;;;;;3.72;1.60;;;22.70;99.90;;;;;;5031700;28;20033;-71
2021/08/01 10:19:22;;;;;;;3.88;1.55;;;22.70;99.90;;;;;;5031555;28;20469;-71
2021/08/01 10:21:50;;;;;;;4.05;1.38;;;22.80;99.90;;;;;;5031855;28;20033;-70
2021/08/01 10:24:22;;;;;;;3.28;1.52;;;22.80;99.90;;;;;;5031434;28;20353;-69
2021/08/01 10:26:50;;;;;;;3.45;1.40;;;22.80;99.90;;;;;;5031643;28;20029;-70
2021/08/01 10:29:29;;;;;;;4.28;1.38;;;22.90;99.90;;;;;;5031390;28;20065;-71
2021/08/01 10:32:07;;;;;;;3.30;1.30;;;22.80;99.90;;;;;;5013977;28;20029;-71
2021/08/01 10:34:58;;;;;;;2.83;1.27;;;22.90;99.90;;;;;;5031369;28;20044;-72
2021/08/01 10:37:33;;;;;;;2.78;1.10;;;22.90;99.90;;;;;;5031296;28;20033;-71
2021/08/01 10:40:03;;;;;;;3.72;1.33;;;22.90;99.90;;;;;;5031567;28;20473;-71
2021/08/01 10:42:31;;;;;;;3.92;1.55;;;22.90;99.90;;;;;;5031269;28;20057;-71
2021/08/01 10:44:58;;;;;;;2.45;1.20;;;22.80;99.90;;;;;;5031536;28;20027;-71
2021/08/01 10:47:25;;;;;;;3.67;1.25;;;22.90;99.90;;;;;;5031182;28;20100;-71
2021/08/01 10:49:52;;;;;;;4.68;1.45;;;22.90;99.90;;;;;;5031181;28;20041;-72
2021/08/01 10:52:18;;;;;;;4.20;1.40;;;22.90;99.90;;;;;;5031201;28;20018;-71
2021/08/01 10:55:03;;;;;;;2.90;1.20;;;22.90;99.90;;;;;;5031284;28;20037;-71
2021/08/01 10:57:29;;;;;;;3.15;1.02;;;22.90;99.90;;;;;;5031238;28;20022;-73
2021/08/01 10:59:57;;;;;;;3.35;1.30;;;22.90;99.90;;;;;;5031384;28;20021;-70
2021/08/01 11:02:25;;;;;;;2.80;1.30;;;22.90;99.90;;;;;;5031099;28;20029;-70
2021/08/01 11:04:52;;;;;;;3.30;1.05;;;22.90;99.90;;;;;;5031283;28;20021;-70
2021/08/01 11:07:26;;;;;;;2.35;1.17;;;23.00;99.90;;;;;;5031191;28;20104;-69
2021/08/01 11:10:04;;;;;;;3.40;1.35;;;23.00;99.90;;;;;;5031163;28;20026;-70
2021/08/01 11:12:34;;;;;;;2.15;0.90;;;23.00;99.90;;;;;;5030888;28;20026;-69
2021/08/01 11:15:08;;;;;;;2.08;1.13;;;23.00;99.90;;;;;;5031226;28;20037;-69
2021/08/01 11:17:43;;;;;;;2.00;1.23;;;23.00;99.90;;;;;;5030892;28;20524;-69
2021/08/01 11:20:15;;;;;;;3.00;1.05;;;23.00;99.90;;;;;;5031417;28;20030;-70
2021/08/01 11:22:43;;;;;;;3.50;1.13;;;23.00;99.90;;;;;;5031442;28;20025;-69
2021/08/01 11:25:36;;;;;;;2.63;1.15;;;23.00;99.90;;;;;;5031212;28;20488;-69
2021/08/01 11:28:10;;;;;;;2.53;1.13;;;23.10;99.90;;;;;;5031731;28;20026;-68
2021/08/01 11:33:40;;;;;;;2.55;1.25;;;23.10;99.90;;;;;;5034581;28;20477;-69
2021/08/01 11:36:17;;;;;;;2.33;1.20;;;23.10;99.90;;;;;;5034905;28;20033;-70
2021/08/01 11:38:51;;;;;;;1.73;1.00;;;23.10;99.90;;;;;;5034795;28;20037;-69
2021/08/01 11:41:30;;;;;;;3.25;1.20;;;23.10;99.90;;;;;;5034512;28;20060;-69
2021/08/01 11:44:00;;;;;;;2.00;0.85;;;23.10;99.90;;;;;;5034642;28;20017;-69
2021/08/01 11:46:27;;;;;;;2.20;1.10;;;23.20;99.90;;;;;;5034418;28;20094;-69
2021/08/01 11:49:00;;;;;;;2.30;1.08;;;23.20;99.90;;;;;;5034372;28;20065;-69
2021/08/01 11:51:31;;;;;;;2.67;1.15;;;23.20;99.90;;;;;;5034271;28;20068;-69
2021/08/01 11:53:57;;;;;;;2.17;1.00;;;23.20;99.90;;;;;;5034540;28;20025;-69
2021/08/01 11:56:23;;;;;;;3.47;1.00;;;23.20;99.90;;;;;;5034133;28;20064;-69
2021/08/01 11:58:54;;;;;;;2.95;1.27;;;23.30;99.90;;;;;;5034512;28;20022;-69
2021/08/01 12:01:20;;;;;;;2.28;1.00;;;23.30;99.90;;;;;;5034080;28;20095;-69
2021/08/01 12:03:49;;;;;;;2.08;1.00;;;23.30;99.90;;;;;;5034391;28;20028;-69
2021/08/01 12:06:33;;;;;;;2.20;1.10;;;23.30;99.90;;;;;;5034226;28;20025;-69
2021/08/01 12:08:59;;;;;;;2.60;1.20;;;23.30;99.90;;;;;;5016261;28;20432;-69
2021/08/01 12:11:25;;;;;;;1.90;1.00;;;23.30;99.90;;;;;;5033920;28;20029;-69
2021/08/01 12:14:04;;;;;;;1.23;0.82;;;23.30;99.90;;;;;;5034100;28;20025;-69
2021/08/01 12:16:30;;;;;;;2.38;0.90;;;23.30;99.90;;;;;;5033665;28;20124;-69
2021/08/01 12:19:14;;;;;;;2.65;1.20;;;23.30;99.90;;;;;;5034062;28;20104;-69
2021/08/01 12:21:40;;;;;;;1.40;0.80;;;23.30;99.90;;;;;;5034492;28;20032;-69
2021/08/01 12:24:24;;;;;;;2.83;1.20;;;23.30;99.90;;;;;;5034032;28;20030;-69
2021/08/01 12:26:50;;;;;;;1.83;0.88;;;23.40;99.90;;;;;;5033925;28;20025;-69
2021/08/01 12:29:28;;;;;;;1.50;0.82;;;23.40;99.90;;;;;;5015638;28;20025;-69
2021/08/01 12:31:54;;;;;;;2.25;0.88;;;23.40;99.90;;;;;;5033800;28;20030;-69
2021/08/01 12:34:23;;;;;;;1.60;0.90;;;23.40;99.90;;;;;;5033706;28;20028;-69
2021/08/01 12:36:49;;;;;;;1.60;1.02;;;23.40;99.90;;;;;;5033819;28;20025;-70
2021/08/01 12:39:18;;;;;;;2.35;1.08;;;23.40;99.90;;;;;;5033287;28;20033;-69
2021/08/01 12:41:44;;;;;;;2.20;0.90;;;23.40;99.90;;;;;;5033617;28;20362;-69
2021/08/01 12:44:19;;;;;;;2.85;1.20;;;23.40;99.90;;;;;;5033858;28;20473;-69
2021/08/01 12:46:46;;;;;;;1.92;1.05;;;23.40;99.90;;;;;;5033658;28;20473;-69
2021/08/01 12:49:12;;;;;;;1.63;0.75;;;23.40;99.90;;;;;;5033589;28;20504;-70
2021/08/01 12:51:42;;;;;;;2.42;1.10;;;23.40;99.90;;;;;;5033452;28;20029;-69
2021/08/01 12:54:09;;;;;;;1.38;0.82;;;23.40;99.90;;;;;;5033741;28;20032;-69
2021/08/01 12:56:36;;;;;;;1.95;1.00;;;23.40;99.90;;;;;;5033093;28;20385;-69